Cecil, Wisconsin
Current Conditions -  °F | °C
As of 5:55 PM on Monday 22 Dec 2014 (Local Time) from KEZS Reporting Station
Light Snow Light Snow  
Wind Chill: 28°   Ceiling: 1000
Heat Index: 35°   Visibility: 1.7mi
Dew Point: 32°   Wind: 8mph
Humidity: 90%   Direction: 70°ENE
Pressure: 29.78"   Gusts: NA
Location:  44.81°N, 88.45°W
Report Text: KEZS 222355Z AUTO 07007KT 1 3/4SM -SN BKN010 OVC017 02/00 A2978 RMK AO2 T00150000 10035 20015
Loading
Personal Weather Stations






























Interactive Weather Map New forecast layout! Learn more

10-Day Weather Forecast

Advertisements
Track Severe Weather on mobile